Myrnam, Canada
Current Conditions -  °F | °C
As of 2:00 AM on Monday 20 Oct 2014 (Local Time) from CYLL Reporting Station
Clear Clear  
Wind Chill: 44°   Ceiling: Unl
Heat Index: 48°   Visibility: 9mi
Dew Point: 37°   Wind: 10mph
Humidity: 66%   Direction: 160°SSE
Pressure: 29.65"   Gusts: NA
Location:  53.67°N, 111.23°W
Report Text: CYLL 200800Z AUTO 16009KT 9SM CLR 09/03 A2965 RMK SLP049 DENSITY ALT 2300FT
Loading
Personal Weather Stations






























Interactive Weather Map
Tropical Storm Tracking
New forecast layout! Learn more

10-Day Weather Forecast

Advertisements
Track Severe Weather on mobile